Time;durP1;ratioP1;P1;durP2;ratioP2;P2;SDS_P1;SDS_P2;PMS_P1;PMS_P2;Temp;Humidity;BMP_temperature;BMP_pressure;BME280_temperature;BME280_humidity;BME280_pressure;Samples;Min_cycle;Max_cycle;Signal;HPM_P1;HPM_P2
2023/10/23 00:00:44;;;;;;;;;;;20.60;87.50;;;;;;6277155;22;42825;-77
2023/10/23 00:03:10;;;;;;;;;;;20.60;87.50;;;;;;6277357;22;42773;-76
2023/10/23 00:05:35;;;;;;;;;;;20.60;87.60;;;;;;6277040;22;43533;-76
2023/10/23 00:08:01;;;;;;;;;;;20.60;87.60;;;;;;6276290;22;42880;-75
2023/10/23 00:10:27;;;;;;;;;;;20.50;87.60;;;;;;6275902;22;43289;-75
2023/10/23 00:12:52;;;;;;;;;;;20.70;87.60;;;;;;6276978;22;42888;-76
2023/10/23 00:15:18;;;;;;;;;;;20.60;87.70;;;;;;6276690;22;42883;-75
2023/10/23 00:17:43;;;;;;;;;;;20.80;87.80;;;;;;6275602;22;43324;-75
2023/10/23 00:20:09;;;;;;;;;;;20.60;87.80;;;;;;6275658;22;43681;-75
2023/10/23 00:22:35;;;;;;;;;;;20.60;87.60;;;;;;6277440;22;42920;-76
2023/10/23 00:25:00;;;;;;;;;;;20.70;88.00;;;;;;6277057;22;43280;-75
2023/10/23 00:27:26;;;;;;;;;;;20.60;88.30;;;;;;6276738;22;42927;-76
2023/10/23 00:29:52;;;;;;;;;;;20.60;88.30;;;;;;6278890;22;42912;-75
2023/10/23 00:32:17;;;;;;;;;;;20.70;88.00;;;;;;6282429;22;42797;-76
2023/10/23 00:34:43;;;;;;;;;;;20.80;88.10;;;;;;6280332;22;43645;-76
2023/10/23 00:37:08;;;;;;;;;;;20.70;88.00;;;;;;6279551;22;42956;-76
2023/10/23 00:46:18;;;;;;;;;;;;;;;;;;6216769;22;42849;-76
2023/10/23 00:52:23;;;;;;;;;;;20.70;87.00;;;;;;6219221;22;42813;-76
2023/10/23 00:54:52;;;;;;;;;;;20.80;88.20;;;;;;6214829;22;43019;-76
2023/10/23 00:57:18;;;;;;;;;;;20.80;85.70;;;;;;6215104;22;42783;-75
2023/10/23 00:59:44;;;;;;;;;;;20.80;88.30;;;;;;6213384;22;43003;-77
2023/10/23 01:02:09;;;;;;;;;;;20.80;88.40;;;;;;6214575;22;42992;-75
2023/10/23 01:04:35;;;;;;;;;;;20.80;88.40;;;;;;6214205;22;42925;-77
2023/10/23 01:07:01;;;;;;;;;;;20.70;88.40;;;;;;6212846;22;43445;-76
2023/10/23 01:09:26;;;;;;;;;;;20.80;88.40;;;;;;6213509;22;43184;-77
2023/10/23 01:11:52;;;;;;;;;;;20.80;88.50;;;;;;6212205;22;42803;-76
2023/10/23 01:14:17;;;;;;;;;;;20.90;88.50;;;;;;6294492;22;42994;-76
2023/10/23 01:16:43;;;;;;;;;;;20.80;88.50;;;;;;6307589;22;43482;-76
2023/10/23 01:19:09;;;;;;;;;;;20.80;88.60;;;;;;6308066;22;42911;-76
2023/10/23 01:21:34;;;;;;;;;;;20.80;88.60;;;;;;6308010;22;43052;-76
2023/10/23 01:24:00;;;;;;;;;;;20.80;88.70;;;;;;6309378;22;43084;-76
2023/10/23 01:26:27;;;;;;;;;;;;;;;;;;6311862;22;43526;-76
2023/10/23 01:28:53;;;;;;;;;;;;;;;;;;6307434;22;42942;-76
2023/10/23 01:31:19;;;;;;;;;;;20.80;87.40;;;;;;6308070;22;43637;-75
2023/10/23 01:33:45;;;;;;;;;;;20.80;89.10;;;;;;6307493;22;42980;-76
2023/10/23 01:36:11;;;;;;;;;;;20.80;88.50;;;;;;6306604;22;42839;-76
2023/10/23 01:38:36;;;;;;;;;;;20.80;88.80;;;;;;6305572;22;42922;-76
2023/10/23 01:41:01;;;;;;;;;;;21.00;89.20;;;;;;6276345;22;43391;-75
2023/10/23 01:43:27;;;;;;;;;;;20.70;88.60;;;;;;6276341;22;43077;-76
2023/10/23 01:45:52;;;;;;;;;;;20.80;89.40;;;;;;6276332;22;43475;-76
2023/10/23 01:48:18;;;;;;;;;;;20.90;88.90;;;;;;6276315;22;42949;-75
2023/10/23 01:50:43;;;;;;;;;;;20.80;89.00;;;;;;6276104;22;42921;-77
2023/10/23 01:53:09;;;;;;;;;;;20.80;89.00;;;;;;6275118;22;42906;-75
2023/10/23 01:55:35;;;;;;;;;;;20.80;88.90;;;;;;6275353;22;42847;-77
2023/10/23 01:58:00;;;;;;;;;;;20.80;88.90;;;;;;6276758;22;43015;-75
2023/10/23 02:00:26;;;;;;;;;;;20.80;89.00;;;;;;6282650;22;42926;-75
2023/10/23 02:02:51;;;;;;;;;;;20.90;89.10;;;;;;6283367;22;43004;-75
2023/10/23 02:05:17;;;;;;;;;;;20.80;89.00;;;;;;6283613;22;42820;-76
2023/10/23 02:07:42;;;;;;;;;;;20.90;89.10;;;;;;6279998;22;42859;-76
2023/10/23 02:10:08;;;;;;;;;;;20.90;89.10;;;;;;6277719;22;42740;-76
2023/10/23 02:12:34;;;;;;;;;;;20.70;89.00;;;;;;6277875;22;42810;-75
2023/10/23 02:14:59;;;;;;;;;;;20.80;89.00;;;;;;6277906;22;43172;-75
2023/10/23 02:17:25;;;;;;;;;;;20.80;89.10;;;;;;6278035;22;42804;-77
2023/10/23 02:19:50;;;;;;;;;;;20.90;89.50;;;;;;6276182;22;43431;-75
2023/10/23 02:22:18;;;;;;;;;;;20.80;89.20;;;;;;6276645;22;42840;-76
2023/10/23 02:24:44;;;;;;;;;;;20.90;89.70;;;;;;6250259;22;44103;-75
2023/10/23 02:27:09;;;;;;;;;;;20.80;89.00;;;;;;6277821;22;43348;-75
2023/10/23 02:29:35;;;;;;;;;;;20.80;89.20;;;;;;6276959;22;43512;-76
2023/10/23 02:32:01;;;;;;;;;;;20.80;89.10;;;;;;6278307;22;42910;-76
2023/10/23 02:34:26;;;;;;;;;;;20.90;89.20;;;;;;6277582;22;42967;-76
2023/10/23 02:36:52;;;;;;;;;;;20.90;89.20;;;;;;6276681;22;42913;-75
2023/10/23 02:39:18;;;;;;;;;;;;;;;;;;6277053;22;42954;-76
2023/10/23 02:41:43;;;;;;;;;;;20.80;86.60;;;;;;6277442;22;43593;-75
2023/10/23 02:44:10;;;;;;;;;;;20.70;89.00;;;;;;6277115;22;42858;-76
2023/10/23 02:46:38;;;;;;;;;;;21.00;89.40;;;;;;6277449;22;42981;-76
2023/10/23 02:49:04;;;;;;;;;;;20.90;89.20;;;;;;6276865;22;42900;-76
2023/10/23 02:51:30;;;;;;;;;;;21.00;89.10;;;;;;6276926;22;42933;-76
2023/10/23 02:53:55;;;;;;;;;;;20.80;89.40;;;;;;6277214;22;42838;-77
2023/10/23 02:56:21;;;;;;;;;;;20.90;89.30;;;;;;6277573;22;42850;-76
2023/10/23 02:58:47;;;;;;;;;;;21.00;89.30;;;;;;6276834;22;42795;-76
2023/10/23 03:01:13;;;;;;;;;;;20.80;89.30;;;;;;6277407;22;43050;-75
2023/10/23 03:03:40;;;;;;;;;;;20.90;89.40;;;;;;6277611;22;43343;-76
2023/10/23 03:06:05;;;;;;;;;;;20.90;89.50;;;;;;6273724;22;42912;-76
2023/10/23 03:08:31;;;;;;;;;;;20.80;89.20;;;;;;6276106;22;42888;-76
2023/10/23 03:10:56;;;;;;;;;;;20.80;89.40;;;;;;6276611;22;43114;-76
2023/10/23 03:13:23;;;;;;;;;;;21.00;89.40;;;;;;6276836;22;43563;-75
2023/10/23 03:15:48;;;;;;;;;;;20.90;89.20;;;;;;6277098;22;42835;-76
2023/10/23 03:18:14;;;;;;;;;;;20.80;89.50;;;;;;6276388;22;43052;-76
2023/10/23 03:20:40;;;;;;;;;;;20.90;89.60;;;;;;6277734;22;43274;-74
2023/10/23 03:23:06;;;;;;;;;;;20.90;89.60;;;;;;6276496;22;42831;-78
2023/10/23 03:25:31;;;;;;;;;;;21.00;89.60;;;;;;6276390;22;42958;-76
2023/10/23 03:27:57;;;;;;;;;;;20.60;89.40;;;;;;6276172;22;42855;-76
2023/10/23 03:30:23;;;;;;;;;;;20.80;89.90;;;;;;6276336;22;42924;-75
2023/10/23 03:32:48;;;;;;;;;;;20.60;89.90;;;;;;6276057;22;43086;-76
2023/10/23 03:35:14;;;;;;;;;;;20.80;89.80;;;;;;6277471;22;42874;-76
2023/10/23 03:37:39;;;;;;;;;;;21.10;90.00;;;;;;6276872;22;43618;-75
2023/10/23 03:40:05;;;;;;;;;;;21.10;89.80;;;;;;6275597;22;42906;-77
2023/10/23 03:42:31;;;;;;;;;;;20.80;89.50;;;;;;6249881;22;45563;-76
2023/10/23 03:44:56;;;;;;;;;;;20.80;89.60;;;;;;6276494;22;42958;-77
2023/10/23 03:47:22;;;;;;;;;;;20.80;89.60;;;;;;6276558;22;43266;-75
2023/10/23 03:49:47;;;;;;;;;;;21.00;90.00;;;;;;6277321;22;42898;-75
2023/10/23 03:52:13;;;;;;;;;;;20.80;89.70;;;;;;6277122;22;42926;-75
2023/10/23 03:54:38;;;;;;;;;;;21.00;89.60;;;;;;6276526;22;42929;-76
2023/10/23 03:57:04;;;;;;;;;;;20.80;90.00;;;;;;6276775;22;43374;-76
2023/10/23 03:59:29;;;;;;;;;;;20.80;89.70;;;;;;6276434;22;43246;-76
2023/10/23 04:01:55;;;;;;;;;;;20.70;89.60;;;;;;6276185;22;42884;-77
2023/10/23 04:04:21;;;;;;;;;;;20.90;89.70;;;;;;6276592;22;43042;-75
2023/10/23 04:06:46;;;;;;;;;;;20.90;89.70;;;;;;6277073;22;42949;-77
2023/10/23 04:09:11;;;;;;;;;;;20.90;89.60;;;;;;6276971;22;42827;-75
2023/10/23 04:11:37;;;;;;;;;;;20.90;89.90;;;;;;6277221;22;43038;-75
2023/10/23 04:14:04;;;;;;;;;;;20.90;89.60;;;;;;6276945;22;42840;-76
2023/10/23 04:16:29;;;;;;;;;;;21.00;89.70;;;;;;6276452;22;43008;-74
2023/10/23 04:18:55;;;;;;;;;;;21.00;89.80;;;;;;6275708;22;42851;-78
2023/10/23 04:21:20;;;;;;;;;;;20.90;89.70;;;;;;6276284;22;43431;-77
2023/10/23 04:23:46;;;;;;;;;;;20.80;89.70;;;;;;6277623;22;42931;-75
2023/10/23 04:26:11;;;;;;;;;;;20.90;89.70;;;;;;6276743;22;43004;-76
2023/10/23 04:28:37;;;;;;;;;;;21.00;89.90;;;;;;6285822;22;42886;-76
2023/10/23 04:31:06;;;;;;;;;;;20.80;89.80;;;;;;6287302;22;43576;-76
2023/10/23 04:33:32;;;;;;;;;;;20.80;87.40;;;;;;6284800;22;42902;-75
2023/10/23 04:35:58;;;;;;;;;;;21.10;89.70;;;;;;6251578;22;44314;-77
2023/10/23 04:38:24;;;;;;;;;;;21.00;89.70;;;;;;6277688;22;42996;-75
2023/10/23 04:40:50;;;;;;;;;;;20.90;89.90;;;;;;6277169;22;43218;-76
2023/10/23 04:43:16;;;;;;;;;;;21.10;89.80;;;;;;6278400;22;42911;-78
2023/10/23 04:45:42;;;;;;;;;;;20.90;90.00;;;;;;6278055;22;43469;-75
2023/10/23 04:48:08;;;;;;;;;;;20.90;89.70;;;;;;6277596;22;43052;-76
2023/10/23 04:50:34;;;;;;;;;;;20.80;89.80;;;;;;6275115;22;43409;-77
2023/10/23 04:53:00;;;;;;;;;;;20.90;89.80;;;;;;6276247;22;42889;-75
2023/10/23 04:55:25;;;;;;;;;;;20.90;90.00;;;;;;6275177;22;43087;-76
2023/10/23 04:57:51;;;;;;;;;;;21.00;90.20;;;;;;6276056;22;42914;-75
2023/10/23 05:00:19;;;;;;;;;;;20.90;90.00;;;;;;6276380;22;43749;-75
2023/10/23 05:02:47;;;;;;;;;;;20.90;89.90;;;;;;6275785;22;43081;-76
2023/10/23 05:05:13;;;;;;;;;;;21.00;87.90;;;;;;6276804;22;43680;-75
2023/10/23 05:07:38;;;;;;;;;;;21.00;90.00;;;;;;6249355;22;43228;-80
2023/10/23 05:10:06;;;;;;;;;;;20.90;90.10;;;;;;6274990;22;43694;-75
2023/10/23 05:12:31;;;;;;;;;;;21.00;89.50;;;;;;6275849;22;42843;-76
2023/10/23 05:14:57;;;;;;;;;;;20.90;90.30;;;;;;6276745;22;42786;-76
2023/10/23 05:17:24;;;;;;;;;;;20.80;90.30;;;;;;6276518;22;42906;-75
2023/10/23 05:19:49;;;;;;;;;;;20.80;90.10;;;;;;6275995;22;42822;-75
2023/10/23 05:22:15;;;;;;;;;;;20.90;90.00;;;;;;6277327;22;42890;-79
2023/10/23 05:24:44;;;;;;;;;;;20.90;90.00;;;;;;6275892;22;43365;-76
2023/10/23 05:27:09;;;;;;;;;;;20.90;90.00;;;;;;6276475;22;42989;-78
2023/10/23 05:29:35;;;;;;;;;;;20.60;90.10;;;;;;6276302;22;43470;-84
2023/10/23 05:32:00;;;;;;;;;;;20.80;90.00;;;;;;6276659;22;42834;-77
2023/10/23 05:34:26;;;;;;;;;;;20.80;90.00;;;;;;6276085;22;43528;-86
2023/10/23 05:36:51;;;;;;;;;;;20.80;86.10;;;;;;6276430;22;42847;-74
2023/10/23 05:39:17;;;;;;;;;;;20.80;86.00;;;;;;6276584;22;42954;-81
2023/10/23 05:41:42;;;;;;;;;;;20.90;86.00;;;;;;6277094;22;43183;-76
2023/10/23 05:44:10;;;;;;;;;;;20.90;85.10;;;;;;6292947;22;42767;-77
2023/10/23 05:46:36;;;;;;;;;;;20.80;85.10;;;;;;6308549;22;42866;-79
2023/10/23 05:49:02;;;;;;;;;;;20.80;86.10;;;;;;6307391;22;43470;-77
2023/10/23 05:51:27;;;;;;;;;;;21.00;86.20;;;;;;6309283;22;42918;-77
2023/10/23 05:53:53;;;;;;;;;;;20.80;85.90;;;;;;6309226;22;42779;-75
2023/10/23 05:56:18;;;;;;;;;;;20.90;85.50;;;;;;6308436;22;42858;-76
2023/10/23 05:58:46;;;;;;;;;;;20.70;85.00;;;;;;6279225;22;43611;-76
2023/10/23 06:01:21;;;;;;;;;;;20.90;84.90;;;;;;6276651;22;43022;-75
2023/10/23 06:03:46;;;;;;;;;;;20.90;84.80;;;;;;6277052;22;42916;-77
2023/10/23 06:06:12;;;;;;;;;;;21.00;85.00;;;;;;6277925;22;42871;-76
2023/10/23 06:08:38;;;;;;;;;;;21.00;84.80;;;;;;6277004;22;43548;-75
2023/10/23 06:11:06;;;;;;;;;;;20.90;84.60;;;;;;6276738;22;42750;-76
2023/10/23 06:13:32;;;;;;;;;;;21.10;84.80;;;;;;6276719;22;43570;-75
2023/10/23 06:16:04;;;;;;;;;;;21.00;84.70;;;;;;6276637;22;42895;-75
2023/10/23 06:18:33;;;;;;;;;;;21.10;83.20;;;;;;6276597;22;42774;-75
2023/10/23 06:21:00;;;;;;;;;;;21.00;82.40;;;;;;6277256;22;42931;-76
2023/10/23 06:23:25;;;;;;;;;;;20.90;84.50;;;;;;6278111;22;44170;-83
2023/10/23 06:25:55;;;;;;;;;;;20.90;84.80;;;;;;6276522;22;42887;-76
2023/10/23 06:28:21;;;;;;;;;;;21.00;82.40;;;;;;6277389;22;42868;-76
2023/10/23 06:30:46;;;;;;;;;;;20.90;84.60;;;;;;6277592;22;42909;-76
2023/10/23 06:33:12;;;;;;;;;;;20.90;84.50;;;;;;6278066;22;42825;-76
2023/10/23 06:35:37;;;;;;;;;;;20.90;84.90;;;;;;6276352;22;43135;-82
2023/10/23 06:38:04;;;;;;;;;;;20.90;84.40;;;;;;6276610;22;43911;-77
2023/10/23 06:40:29;;;;;;;;;;;20.70;84.50;;;;;;6276108;22;42980;-76
2023/10/23 06:42:55;;;;;;;;;;;20.90;84.30;;;;;;6279067;22;42934;-81
2023/10/23 06:45:21;;;;;;;;;;;20.80;84.30;;;;;;6277666;22;42907;-75
2023/10/23 06:47:47;;;;;;;;;;;20.90;84.90;;;;;;6278445;22;43602;-77
2023/10/23 06:50:13;;;;;;;;;;;20.70;84.60;;;;;;6279054;22;43035;-76
2023/10/23 06:52:39;;;;;;;;;;;21.00;84.70;;;;;;6278634;22;43605;-76
2023/10/23 06:55:04;;;;;;;;;;;20.90;84.60;;;;;;6278525;22;42806;-77
2023/10/23 06:57:30;;;;;;;;;;;20.90;84.30;;;;;;6261129;22;43038;-76
2023/10/23 06:59:55;;;;;;;;;;;20.80;84.20;;;;;;6287806;22;42893;-81
2023/10/23 07:02:21;;;;;;;;;;;21.00;84.60;;;;;;6282643;22;42763;-78
2023/10/23 07:04:47;;;;;;;;;;;20.90;84.30;;;;;;6279672;22;43001;-77
2023/10/23 07:07:13;;;;;;;;;;;20.80;84.40;;;;;;6278720;22;42934;-78
2023/10/23 07:09:39;;;;;;;;;;;20.90;84.50;;;;;;6278418;22;42792;-76
2023/10/23 07:12:06;;;;;;;;;;;20.80;85.10;;;;;;6278269;22;43065;-77
2023/10/23 07:14:31;;;;;;;;;;;20.70;82.40;;;;;;6277437;22;42973;-76
2023/10/23 07:16:57;;;;;;;;;;;20.60;84.80;;;;;;6278207;22;43064;-82
2023/10/23 07:19:23;;;;;;;;;;;20.80;84.50;;;;;;6277805;22;42824;-75
2023/10/23 07:21:48;;;;;;;;;;;20.80;84.60;;;;;;6279634;22;42902;-76
2023/10/23 07:24:14;;;;;;;;;;;20.70;84.60;;;;;;6278352;22;42994;-79
2023/10/23 07:26:39;;;;;;;;;;;20.80;84.60;;;;;;6279878;22;43039;-76
2023/10/23 07:29:05;;;;;;;;;;;20.80;84.80;;;;;;6278481;22;42936;-77
2023/10/23 07:31:30;;;;;;;;;;;20.70;84.80;;;;;;6277548;22;43693;-76
2023/10/23 07:33:56;;;;;;;;;;;20.80;84.70;;;;;;6277777;22;43081;-80
2023/10/23 07:36:22;;;;;;;;;;;20.80;84.50;;;;;;6277691;22;42896;-75
2023/10/23 07:38:47;;;;;;;;;;;20.60;84.50;;;;;;6278402;22;42855;-82
2023/10/23 07:41:12;;;;;;;;;;;20.70;84.50;;;;;;6276204;22;42867;-76
2023/10/23 07:43:38;;;;;;;;;;;20.80;84.80;;;;;;6277398;22;42906;-83
2023/10/23 07:46:05;;;;;;;;;;;20.90;84.70;;;;;;6277866;22;43996;-81
2023/10/23 07:48:30;;;;;;;;;;;20.80;85.00;;;;;;6278958;22;42818;-76
2023/10/23 07:50:57;;;;;;;;;;;20.70;84.70;;;;;;6278122;22;43406;-81
2023/10/23 07:53:22;;;;;;;;;;;20.70;84.30;;;;;;6278001;22;42674;-76
2023/10/23 07:55:48;;;;;;;;;;;20.80;84.40;;;;;;6277116;22;42977;-76
2023/10/23 07:58:13;;;;;;;;;;;20.80;84.20;;;;;;6276807;22;43010;-81
2023/10/23 08:00:39;;;;;;;;;;;20.80;84.30;;;;;;6278490;22;43445;-76
2023/10/23 08:03:05;;;;;;;;;;;20.90;84.30;;;;;;6277006;22;42881;-79
2023/10/23 08:05:30;;;;;;;;;;;20.60;83.80;;;;;;6276947;22;42982;-76
2023/10/23 08:07:56;;;;;;;;;;;20.80;84.20;;;;;;6279498;22;42879;-81
2023/10/23 08:10:21;;;;;;;;;;;20.80;84.10;;;;;;6277690;22;42957;-75
2023/10/23 08:12:47;;;;;;;;;;;20.80;84.00;;;;;;6278564;22;42867;-76
2023/10/23 08:15:12;;;;;;;;;;;20.80;84.00;;;;;;6278095;22;43305;-76
2023/10/23 08:17:38;;;;;;;;;;;21.30;84.30;;;;;;6276779;22;43599;-76
2023/10/23 08:20:04;;;;;;;;;;;20.80;83.90;;;;;;6277330;22;43623;-77
2023/10/23 08:22:29;;;;;;;;;;;20.90;83.50;;;;;;6277706;22;42770;-75
2023/10/23 08:24:55;;;;;;;;;;;20.90;83.90;;;;;;6276877;22;42859;-76
2023/10/23 08:27:20;;;;;;;;;;;20.80;83.70;;;;;;6277393;22;43126;-75
2023/10/23 08:29:46;;;;;;;;;;;20.90;84.40;;;;;;6277188;22;43726;-81
2023/10/23 08:32:12;;;;;;;;;;;20.60;84.00;;;;;;6278042;22;42817;-75
2023/10/23 08:34:38;;;;;;;;;;;20.80;83.90;;;;;;6277574;22;43545;-77
2023/10/23 08:37:03;;;;;;;;;;;20.90;83.90;;;;;;6278099;22;42892;-78
2023/10/23 08:39:29;;;;;;;;;;;20.80;83.90;;;;;;6277165;22;43006;-75
2023/10/23 08:41:55;;;;;;;;;;;20.90;83.90;;;;;;6278173;22;42705;-78
2023/10/23 08:44:21;;;;;;;;;;;20.80;84.00;;;;;;6277093;22;42787;-76
2023/10/23 08:46:47;;;;;;;;;;;20.70;83.70;;;;;;6276902;22;42868;-77
2023/10/23 08:49:13;;;;;;;;;;;20.60;84.10;;;;;;6277356;22;42818;-75
2023/10/23 08:51:40;;;;;;;;;;;20.50;83.70;;;;;;6277408;22;42921;-76
2023/10/23 08:54:06;;;;;;;;;;;20.70;84.10;;;;;;6276577;22;42913;-78
2023/10/23 08:56:35;;;;;;;;;;;20.70;83.80;;;;;;6276830;22;42888;-77
2023/10/23 08:59:01;;;;;;;;;;;20.70;83.60;;;;;;6276938;22;43537;-76
2023/10/23 09:01:27;;;;;;;;;;;20.60;83.70;;;;;;6276223;22;43611;-76
2023/10/23 09:03:53;;;;;;;;;;;20.80;83.70;;;;;;6276468;22;42923;-76
2023/10/23 09:06:18;;;;;;;;;;;20.60;83.60;;;;;;6276561;22;42963;-77
2023/10/23 09:08:44;;;;;;;;;;;20.80;83.70;;;;;;6276755;22;42967;-78
2023/10/23 09:11:10;;;;;;;;;;;20.70;83.70;;;;;;6277748;22;42837;-76
2023/10/23 09:13:37;;;;;;;;;;;20.60;83.80;;;;;;6277672;22;43329;-83
2023/10/23 09:16:07;;;;;;;;;;;20.80;84.20;;;;;;6275951;22;42903;-78
2023/10/23 09:18:33;;;;;;;;;;;20.80;81.60;;;;;;6276414;22;43991;-76
2023/10/23 09:20:58;;;;;;;;;;;20.90;83.60;;;;;;6276579;22;42983;-76
2023/10/23 09:23:24;;;;;;;;;;;20.80;83.70;;;;;;6277087;22;43442;-79
2023/10/23 09:25:55;;;;;;;;;;;20.90;84.00;;;;;;6280086;22;43410;-76
2023/10/23 09:28:21;;;;;;;;;;;20.80;83.90;;;;;;6285404;22;43526;-77
2023/10/23 09:30:46;;;;;;;;;;;20.80;83.50;;;;;;6282600;22;42833;-82
2023/10/23 09:33:14;;;;;;;;;;;20.70;84.00;;;;;;6279880;22;42874;-76
2023/10/23 09:35:40;;;;;;;;;;;20.80;83.60;;;;;;6251071;22;42874;-75
2023/10/23 09:38:12;;;;;;;;;;;20.60;83.40;;;;;;6277472;22;42965;-77
2023/10/23 09:40:37;;;;;;;;;;;20.70;81.40;;;;;;6277446;22;42904;-82
2023/10/23 09:43:04;;;;;;;;;;;20.80;84.00;;;;;;6276419;22;43650;-76
2023/10/23 09:45:30;;;;;;;;;;;20.80;83.40;;;;;;6277590;22;42769;-76
2023/10/23 09:47:58;;;;;;;;;;;20.80;83.80;;;;;;6278385;22;42846;-82
2023/10/23 09:50:25;;;;;;;;;;;20.70;83.80;;;;;;6277679;22;42857;-76
2023/10/23 09:52:52;;;;;;;;;;;20.70;83.70;;;;;;6279010;22;42749;-76
2023/10/23 09:55:19;;;;;;;;;;;20.80;84.00;;;;;;6277782;22;42912;-82
2023/10/23 09:57:45;;;;;;;;;;;20.70;83.30;;;;;;6276673;22;42904;-82
2023/10/23 10:00:14;;;;;;;;;;;20.70;83.90;;;;;;6277251;22;42960;-76
2023/10/23 10:02:40;;;;;;;;;;;20.60;82.90;;;;;;6277060;22;42834;-75
2023/10/23 10:05:07;;;;;;;;;;;20.90;83.90;;;;;;6278532;22;43103;-80
2023/10/23 10:07:39;;;;;;;;;;;20.80;83.70;;;;;;6277230;22;42784;-76
2023/10/23 10:10:05;;;;;;;;;;;20.80;81.20;;;;;;6278113;22;43073;-81
2023/10/23 10:12:34;;;;;;;;;;;20.70;83.20;;;;;;6278094;22;42920;-75
2023/10/23 10:15:01;;;;;;;;;;;20.70;83.00;;;;;;6278854;22;43358;-76
2023/10/23 10:17:27;;;;;;;;;;;20.80;83.30;;;;;;6277292;22;42967;-79
2023/10/23 10:19:53;;;;;;;;;;;20.80;83.20;;;;;;6277523;22;42792;-75
2023/10/23 10:22:33;;;;;;;;;;;20.80;83.70;;;;;;6278638;22;42840;-75
2023/10/23 10:24:59;;;;;;;;;;;20.70;81.20;;;;;;6277620;22;42976;-75
2023/10/23 10:27:24;;;;;;;;;;;20.80;83.30;;;;;;6277485;22;43221;-78
2023/10/23 10:29:51;;;;;;;;;;;20.70;83.70;;;;;;6278312;22;42916;-75
2023/10/23 10:32:17;;;;;;;;;;;20.50;83.40;;;;;;6279392;22;42890;-77
2023/10/23 10:34:45;;;;;;;;;;;20.70;83.50;;;;;;6277567;22;42923;-76
2023/10/23 10:37:11;;;;;;;;;;;20.80;81.10;;;;;;6278725;22;43521;-79
2023/10/23 10:39:46;;;;;;;;;;;20.70;83.50;;;;;;6278524;22;43027;-78
2023/10/23 10:42:17;;;;;;;;;;;20.60;80.90;;;;;;6279299;22;42915;-76
2023/10/23 10:44:55;;;;;;;;;;;20.70;81.00;;;;;;6278319;22;42934;-75
2023/10/23 10:47:21;;;;;;;;;;;21.30;81.30;;;;;;6278610;22;43586;-76
2023/10/23 10:49:47;;;;;;;;;;;21.60;84.00;;;;;;6277767;22;42959;-80
2023/10/23 10:52:30;;;;;;;;;;;20.70;83.10;;;;;;6279120;22;43942;-76
2023/10/23 10:54:55;;;;;;;;;;;20.70;80.80;;;;;;6278126;22;42941;-76
2023/10/23 10:57:21;;;;;;;;;;;20.80;83.30;;;;;;6286258;22;43215;-76
2023/10/23 10:59:46;;;;;;;;;;;20.70;83.20;;;;;;6309755;22;42906;-80
2023/10/23 11:02:12;;;;;;;;;;;20.90;83.20;;;;;;6309201;22;42830;-76
2023/10/23 11:04:37;;;;;;;;;;;20.70;82.90;;;;;;6308561;22;42724;-75
2023/10/23 11:07:03;;;;;;;;;;;20.70;83.00;;;;;;6307987;22;43148;-79
2023/10/23 11:09:29;;;;;;;;;;;20.90;82.90;;;;;;6308452;22;42873;-78
2023/10/23 11:11:57;;;;;;;;;;;20.90;82.50;;;;;;6309165;22;42967;-82
2023/10/23 11:14:24;;;;;;;;;;;20.70;82.80;;;;;;6309545;22;42910;-77
2023/10/23 11:16:50;;;;;;;;;;;20.80;82.40;;;;;;6308645;22;43227;-78
2023/10/23 11:19:16;;;;;;;;;;;20.80;81.60;;;;;;6309078;22;42870;-80
2023/10/23 11:21:41;;;;;;;;;;;20.90;81.70;;;;;;6309029;22;43751;-78
2023/10/23 11:24:07;;;;;;;;;;;20.90;81.10;;;;;;6309965;22;42953;-78
2023/10/23 11:26:33;;;;;;;;;;;;;;;;;;6306570;22;42975;-80
2023/10/23 11:28:58;;;;;;;;;;;20.80;80.60;;;;;;6308174;22;43031;-80
2023/10/23 11:31:24;;;;;;;;;;;20.70;80.70;;;;;;6280917;22;44334;-80
2023/10/23 11:33:58;;;;;;;;;;;21.00;80.10;;;;;;6308193;22;42837;-80
2023/10/23 11:36:27;;;;;;;;;;;20.90;79.40;;;;;;6305235;22;43791;-80
2023/10/23 11:38:53;;;;;;;;;;;21.10;79.50;;;;;;6307467;22;42833;-81
2023/10/23 11:41:20;;;;;;;;;;;20.60;79.40;;;;;;6278974;22;42969;-79
2023/10/23 11:43:46;;;;;;;;;;;20.90;80.10;;;;;;6281754;22;43007;-76
2023/10/23 11:46:11;;;;;;;;;;;21.00;79.70;;;;;;6281373;22;44583;-77
2023/10/23 11:48:37;;;;;;;;;;;21.00;79.50;;;;;;6281580;22;42902;-77
2023/10/23 11:51:03;;;;;;;;;;;21.00;80.00;;;;;;6280560;22;45273;-76
2023/10/23 11:53:32;;;;;;;;;;;20.90;79.50;;;;;;6280595;22;43042;-77
2023/10/23 11:55:58;;;;;;;;;;;20.90;79.50;;;;;;6280924;22;45171;-77
2023/10/23 11:58:27;;;;;;;;;;;20.70;79.70;;;;;;6291969;22;42925;-78
2023/10/23 12:00:53;;;;;;;;;;;21.00;77.20;;;;;;6319147;22;43479;-78
2023/10/23 12:03:18;;;;;;;;;;;21.00;79.70;;;;;;6314047;22;42889;-77
2023/10/23 12:05:44;;;;;;;;;;;20.90;79.20;;;;;;6309240;22;44246;-77
2023/10/23 12:08:10;;;;;;;;;;;20.80;79.40;;;;;;6308627;22;42913;-76
2023/10/23 12:10:38;;;;;;;;;;;20.90;79.20;;;;;;6307084;22;42843;-79
2023/10/23 12:13:03;;;;;;;;;;;20.80;79.20;;;;;;6307966;22;43138;-76
2023/10/23 12:15:29;;;;;;;;;;;21.00;79.00;;;;;;6307687;22;43479;-77
2023/10/23 12:18:02;;;;;;;;;;;20.90;78.80;;;;;;6308066;22;42832;-84
2023/10/23 12:20:29;;;;;;;;;;;21.00;79.10;;;;;;6309040;22;44280;-78
2023/10/23 12:22:55;;;;;;;;;;;20.80;78.90;;;;;;6307804;22;42937;-78
2023/10/23 12:25:23;;;;;;;;;;;20.80;78.50;;;;;;6280942;22;43659;-78
2023/10/23 12:27:49;;;;;;;;;;;20.80;78.60;;;;;;6249935;22;42919;-78
2023/10/23 12:30:15;;;;;;;;;;;20.80;78.60;;;;;;6275983;22;42820;-83
2023/10/23 12:32:40;;;;;;;;;;;20.60;77.50;;;;;;6276096;22;42967;-79
2023/10/23 12:35:07;;;;;;;;;;;20.80;78.10;;;;;;6275636;22;42823;-83
2023/10/23 12:37:34;;;;;;;;;;;20.60;78.20;;;;;;6275767;22;42906;-79
2023/10/23 12:40:03;;;;;;;;;;;20.70;78.20;;;;;;6276704;22;43676;-77
2023/10/23 12:42:29;;;;;;;;;;;20.60;76.40;;;;;;6276546;22;42971;-81
2023/10/23 12:44:55;;;;;;;;;;;20.70;77.80;;;;;;6277518;22;44429;-78
2023/10/23 12:47:21;;;;;;;;;;;20.70;77.80;;;;;;6277376;22;42994;-78
2023/10/23 12:49:47;;;;;;;;;;;20.70;78.00;;;;;;6276904;22;43588;-78
2023/10/23 12:52:13;;;;;;;;;;;21.00;78.60;;;;;;6277121;22;42908;-78
2023/10/23 12:54:38;;;;;;;;;;;20.80;78.20;;;;;;6250340;22;43405;-77
2023/10/23 12:57:05;;;;;;;;;;;20.80;78.10;;;;;;6277711;22;42861;-79
2023/10/23 12:59:34;;;;;;;;;;;20.80;77.60;;;;;;6276342;22;43635;-82
2023/10/23 13:02:00;;;;;;;;;;;20.90;75.20;;;;;;6277166;22;42962;-77
2023/10/23 13:04:26;;;;;;;;;;;21.10;78.00;;;;;;6276985;22;43627;-81
2023/10/23 13:06:52;;;;;;;;;;;20.90;76.50;;;;;;6275093;22;42906;-79
2023/10/23 13:09:17;;;;;;;;;;;21.00;76.40;;;;;;6275755;22;43612;-79
2023/10/23 13:11:43;;;;;;;;;;;20.90;76.80;;;;;;6276555;22;42955;-79
2023/10/23 13:14:09;;;;;;;;;;;20.80;77.30;;;;;;6275852;22;42844;-78
2023/10/23 13:16:35;;;;;;;;;;;21.00;76.70;;;;;;6275634;22;42825;-79
2023/10/23 13:19:00;;;;;;;;;;;20.90;77.10;;;;;;6276203;22;43566;-78
2023/10/23 13:21:26;;;;;;;;;;;20.70;76.30;;;;;;6277283;22;42911;-82
2023/10/23 13:23:51;;;;;;;;;;;21.00;76.30;;;;;;6276202;22;42868;-79
2023/10/23 13:26:21;;;;;;;;;;;20.80;75.90;;;;;;6276225;22;42970;-80
2023/10/23 13:28:46;;;;;;;;;;;20.90;74.50;;;;;;6276417;22;42820;-82
2023/10/23 13:31:12;;;;;;;;;;;20.90;76.10;;;;;;6276796;22;42902;-79
2023/10/23 13:33:38;;;;;;;;;;;20.90;76.20;;;;;;6276246;22;43747;-80
2023/10/23 13:36:04;;;;;;;;;;;;;;;;;;6275509;22;42879;-85
2023/10/23 13:38:30;;;;;;;;;;;20.80;74.10;;;;;;6277095;22;43469;-84
2023/10/23 13:40:56;;;;;;;;;;;20.80;76.30;;;;;;6277170;22;42911;-84
2023/10/23 13:43:22;;;;;;;;;;;20.80;76.30;;;;;;6250059;22;42871;-83
2023/10/23 13:45:48;;;;;;;;;;;20.80;76.50;;;;;;6277889;22;43006;-83
2023/10/23 13:48:41;;;;;;;;;;;20.80;76.70;;;;;;6280272;22;43023;-81
2023/10/23 13:51:09;;;;;;;;;;;20.80;76.40;;;;;;6299081;22;42920;-83
2023/10/23 13:53:41;;;;;;;;;;;20.90;76.50;;;;;;6277765;22;42926;-83
2023/10/23 13:59:09;;;;;;;;;;;20.30;76.70;;;;;;6279200;22;43150;-84
2023/10/23 14:01:35;;;;;;;;;;;20.90;76.20;;;;;;6278085;22;42919;-79
2023/10/23 14:04:00;;;;;;;;;;;20.90;76.20;;;;;;6278079;22;42823;-83
2023/10/23 14:06:27;;;;;;;;;;;20.70;76.40;;;;;;6277756;22;42889;-83
2023/10/23 14:08:54;;;;;;;;;;;20.80;76.50;;;;;;6250736;22;44307;-83
2023/10/23 14:11:19;;;;;;;;;;;20.70;76.80;;;;;;6277743;22;42868;-80
2023/10/23 14:13:45;;;;;;;;;;;20.80;76.50;;;;;;6277276;22;43023;-83
2023/10/23 14:16:12;;;;;;;;;;;20.80;76.90;;;;;;6278920;22;42883;-84
2023/10/23 14:21:59;;;;;;;;;;;20.90;76.60;;;;;;6310746;22;43071;-79
2023/10/23 14:24:31;;;;;;;;;;;20.90;76.20;;;;;;6308499;22;42968;-82
2023/10/23 14:26:56;;;;;;;;;;;20.80;76.50;;;;;;6310940;22;42781;-78
2023/10/23 14:29:22;;;;;;;;;;;20.80;76.30;;;;;;6314791;22;42811;-77